sensor_id;sensor_type;location;lat;lon;timestamp;temperature;humidity
23813;DHT22;12087;45.190;5.688;2024-03-23T00:57:32;13.40;99.90
23813;DHT22;12087;45.190;5.688;2024-03-23T01:02:54;13.30;99.90
23813;DHT22;12087;45.190;5.688;2024-03-23T01:08:16;13.30;99.90
23813;DHT22;12087;45.190;5.688;2024-03-23T01:13:39;13.20;99.90
23813;DHT22;12087;45.190;5.688;2024-03-23T01:19:02;13.20;99.90
23813;DHT22;12087;45.190;5.688;2024-03-23T01:24:24;13.20;99.90
23813;DHT22;12087;45.190;5.688;2024-03-23T01:29:47;13.10;99.90
23813;DHT22;12087;45.190;5.688;2024-03-23T01:35:09;13.00;99.90
23813;DHT22;12087;45.190;5.688;2024-03-23T01:40:33;13.00;99.90
23813;DHT22;12087;45.190;5.688;2024-03-23T01:45:56;12.90;99.90
23813;DHT22;12087;45.190;5.688;2024-03-23T01:51:18;12.80;99.90
23813;DHT22;12087;45.190;5.688;2024-03-23T01:56:41;12.80;99.90
23813;DHT22;12087;45.190;5.688;2024-03-23T02:02:04;12.80;99.90
23813;DHT22;12087;45.190;5.688;2024-03-23T02:07:27;12.80;99.90
23813;DHT22;12087;45.190;5.688;2024-03-23T02:12:49;12.80;99.90
23813;DHT22;12087;45.190;5.688;2024-03-23T02:18:12;12.90;99.90
23813;DHT22;12087;45.190;5.688;2024-03-23T02:23:36;12.90;99.90
23813;DHT22;12087;45.190;5.688;2024-03-23T02:28:58;12.80;99.90
23813;DHT22;12087;45.190;5.688;2024-03-23T02:34:21;12.80;99.90
23813;DHT22;12087;45.190;5.688;2024-03-23T02:39:45;12.80;99.90
23813;DHT22;12087;45.190;5.688;2024-03-23T02:45:07;12.80;99.90
23813;DHT22;12087;45.190;5.688;2024-03-23T02:50:30;12.80;99.90
23813;DHT22;12087;45.190;5.688;2024-03-23T02:55:53;12.80;99.90
23813;DHT22;12087;45.190;5.688;2024-03-23T03:01:15;12.90;99.90
23813;DHT22;12087;45.190;5.688;2024-03-23T03:06:39;13.00;99.90
23813;DHT22;12087;45.190;5.688;2024-03-23T03:12:03;13.00;99.90
23813;DHT22;12087;45.190;5.688;2024-03-23T03:17:25;13.00;99.90
23813;DHT22;12087;45.190;5.688;2024-03-23T03:22:48;13.10;99.90
23813;DHT22;12087;45.190;5.688;2024-03-23T03:28:11;13.10;99.90
23813;DHT22;12087;45.190;5.688;2024-03-23T03:33:33;13.20;99.90
23813;DHT22;12087;45.190;5.688;2024-03-23T03:38:55;13.20;99.90
23813;DHT22;12087;45.190;5.688;2024-03-23T03:44:19;13.10;99.90
23813;DHT22;12087;45.190;5.688;2024-03-23T03:49:42;13.20;99.90
23813;DHT22;12087;45.190;5.688;2024-03-23T03:55:13;13.20;99.90
23813;DHT22;12087;45.190;5.688;2024-03-23T04:00:37;13.10;99.90
23813;DHT22;12087;45.190;5.688;2024-03-23T04:05:59;13.10;99.90
23813;DHT22;12087;45.190;5.688;2024-03-23T04:11:21;13.10;99.90
23813;DHT22;12087;45.190;5.688;2024-03-23T04:16:45;13.10;99.90
23813;DHT22;12087;45.190;5.688;2024-03-23T04:22:07;13.00;99.90
23813;DHT22;12087;45.190;5.688;2024-03-23T04:27:30;12.90;99.90
23813;DHT22;12087;45.190;5.688;2024-03-23T04:32:53;12.90;99.90
23813;DHT22;12087;45.190;5.688;2024-03-23T04:38:15;12.90;99.90
23813;DHT22;12087;45.190;5.688;2024-03-23T04:43:38;12.80;99.90
23813;DHT22;12087;45.190;5.688;2024-03-23T04:49:02;12.70;99.90
23813;DHT22;12087;45.190;5.688;2024-03-23T04:54:25;12.60;99.90
23813;DHT22;12087;45.190;5.688;2024-03-23T04:59:48;12.50;99.90
23813;DHT22;12087;45.190;5.688;2024-03-23T05:05:12;12.50;99.90
23813;DHT22;12087;45.190;5.688;2024-03-23T05:10:35;12.40;99.90
23813;DHT22;12087;45.190;5.688;2024-03-23T05:15:57;12.40;99.90
23813;DHT22;12087;45.190;5.688;2024-03-23T05:21:21;12.40;99.90
23813;DHT22;12087;45.190;5.688;2024-03-23T05:26:44;12.40;99.90
23813;DHT22;12087;45.190;5.688;2024-03-23T05:32:06;12.50;99.90
23813;DHT22;12087;45.190;5.688;2024-03-23T05:37:30;12.50;99.90
23813;DHT22;12087;45.190;5.688;2024-03-23T05:42:54;12.60;99.90
23813;DHT22;12087;45.190;5.688;2024-03-23T05:48:16;12.60;99.90
23813;DHT22;12087;45.190;5.688;2024-03-23T05:53:40;12.60;99.90
23813;DHT22;12087;45.190;5.688;2024-03-23T05:59:03;12.60;99.90
23813;DHT22;12087;45.190;5.688;2024-03-23T06:04:25;12.60;99.90
23813;DHT22;12087;45.190;5.688;2024-03-23T06:09:49;12.60;99.90
23813;DHT22;12087;45.190;5.688;2024-03-23T06:15:13;12.70;99.90
23813;DHT22;12087;45.190;5.688;2024-03-23T06:20:48;12.90;99.90
23813;DHT22;12087;45.190;5.688;2024-03-23T06:26:12;13.00;99.90
23813;DHT22;12087;45.190;5.688;2024-03-23T06:31:34;13.00;99.90
23813;DHT22;12087;45.190;5.688;2024-03-23T06:36:57;13.10;99.90
23813;DHT22;12087;45.190;5.688;2024-03-23T06:42:20;13.20;99.90
23813;DHT22;12087;45.190;5.688;2024-03-23T06:47:42;13.20;99.90
23813;DHT22;12087;45.190;5.688;2024-03-23T06:53:05;13.40;99.90
23813;DHT22;12087;45.190;5.688;2024-03-23T06:58:28;13.60;99.90
23813;DHT22;12087;45.190;5.688;2024-03-23T07:03:50;13.90;99.90
23813;DHT22;12087;45.190;5.688;2024-03-23T07:09:13;13.90;99.90
23813;DHT22;12087;45.190;5.688;2024-03-23T07:14:36;14.00;99.90
23813;DHT22;12087;45.190;5.688;2024-03-23T07:19:58;13.90;99.90
23813;DHT22;12087;45.190;5.688;2024-03-23T07:25:22;13.80;99.90
23813;DHT22;12087;45.190;5.688;2024-03-23T07:30:48;13.80;99.90
23813;DHT22;12087;45.190;5.688;2024-03-23T07:36:10;13.80;99.90
23813;DHT22;12087;45.190;5.688;2024-03-23T07:41:32;13.80;99.90
23813;DHT22;12087;45.190;5.688;2024-03-23T07:46:56;13.80;99.90
23813;DHT22;12087;45.190;5.688;2024-03-23T07:52:18;13.80;99.90
23813;DHT22;12087;45.190;5.688;2024-03-23T07:57:40;13.80;99.90
23813;DHT22;12087;45.190;5.688;2024-03-23T08:03:04;13.80;99.90
23813;DHT22;12087;45.190;5.688;2024-03-23T08:08:26;13.90;99.90
23813;DHT22;12087;45.190;5.688;2024-03-23T08:13:49;13.90;99.90
23813;DHT22;12087;45.190;5.688;2024-03-23T08:19:13;14.00;99.90
23813;DHT22;12087;45.190;5.688;2024-03-23T08:24:35;14.00;99.90
23813;DHT22;12087;45.190;5.688;2024-03-23T08:29:57;14.00;99.90
23813;DHT22;12087;45.190;5.688;2024-03-23T08:35:21;14.00;99.90
23813;DHT22;12087;45.190;5.688;2024-03-23T08:40:43;14.00;99.90
23813;DHT22;12087;45.190;5.688;2024-03-23T08:46:06;13.90;99.90
23813;DHT22;12087;45.190;5.688;2024-03-23T08:51:30;13.70;99.90
23813;DHT22;12087;45.190;5.688;2024-03-23T08:56:52;13.60;99.90
23813;DHT22;12087;45.190;5.688;2024-03-23T09:02:15;13.50;99.90
23813;DHT22;12087;45.190;5.688;2024-03-23T09:07:38;13.60;99.90
23813;DHT22;12087;45.190;5.688;2024-03-23T09:13:00;13.60;99.90
23813;DHT22;12087;45.190;5.688;2024-03-23T09:18:24;13.60;99.90
23813;DHT22;12087;45.190;5.688;2024-03-23T09:23:47;13.40;99.90
23813;DHT22;12087;45.190;5.688;2024-03-23T09:29:10;13.30;99.90
23813;DHT22;12087;45.190;5.688;2024-03-23T09:34:32;13.40;99.90
23813;DHT22;12087;45.190;5.688;2024-03-23T09:39:57;13.20;99.90
23813;DHT22;12087;45.190;5.688;2024-03-23T09:45:23;13.20;99.90
23813;DHT22;12087;45.190;5.688;2024-03-23T09:50:48;13.40;99.90
23813;DHT22;12087;45.190;5.688;2024-03-23T09:56:11;13.50;99.90
23813;DHT22;12087;45.190;5.688;2024-03-23T10:01:34;13.60;99.90
23813;DHT22;12087;45.190;5.688;2024-03-23T10:06:56;13.80;99.90
23813;DHT22;12087;45.190;5.688;2024-03-23T10:12:33;13.70;99.90
23813;DHT22;12087;45.190;5.688;2024-03-23T10:17:56;13.80;99.90
23813;DHT22;12087;45.190;5.688;2024-03-23T10:23:18;13.80;99.90
23813;DHT22;12087;45.190;5.688;2024-03-23T10:28:55;13.80;99.90
23813;DHT22;12087;45.190;5.688;2024-03-23T10:34:25;13.80;99.90
23813;DHT22;12087;45.190;5.688;2024-03-23T10:39:48;14.00;99.90
23813;DHT22;12087;45.190;5.688;2024-03-23T10:45:12;14.20;99.90
23813;DHT22;12087;45.190;5.688;2024-03-23T10:50:34;14.00;99.90
23813;DHT22;12087;45.190;5.688;2024-03-23T10:55:56;14.30;99.90
23813;DHT22;12087;45.190;5.688;2024-03-23T11:01:20;14.50;99.90
23813;DHT22;12087;45.190;5.688;2024-03-23T11:06:42;14.80;99.90
23813;DHT22;12087;45.190;5.688;2024-03-23T11:12:24;15.00;99.90
23813;DHT22;12087;45.190;5.688;2024-03-23T11:18:04;15.20;99.90
23813;DHT22;12087;45.190;5.688;2024-03-23T11:23:27;15.50;99.90
23813;DHT22;12087;45.190;5.688;2024-03-23T11:28:49;15.60;99.90
23813;DHT22;12087;45.190;5.688;2024-03-23T11:34:13;15.70;99.90
23813;DHT22;12087;45.190;5.688;2024-03-23T11:39:36;15.90;99.90
23813;DHT22;12087;45.190;5.688;2024-03-23T11:44:59;16.00;99.90
23813;DHT22;12087;45.190;5.688;2024-03-23T11:50:30;15.90;99.90
23813;DHT22;12087;45.190;5.688;2024-03-23T11:55:53;15.90;99.80
23813;DHT22;12087;45.190;5.688;2024-03-23T12:01:15;16.00;98.60
23813;DHT22;12087;45.190;5.688;2024-03-23T12:06:39;16.20;98.00
23813;DHT22;12087;45.190;5.688;2024-03-23T12:12:07;16.30;97.80
23813;DHT22;12087;45.190;5.688;2024-03-23T12:17:29;16.50;96.60
23813;DHT22;12087;45.190;5.688;2024-03-23T12:23:05;16.40;96.90
23813;DHT22;12087;45.190;5.688;2024-03-23T12:28:27;16.40;98.30
23813;DHT22;12087;45.190;5.688;2024-03-23T12:33:50;16.40;95.70
23813;DHT22;12087;45.190;5.688;2024-03-23T12:39:15;16.50;93.90
23813;DHT22;12087;45.190;5.688;2024-03-23T12:44:37;16.60;92.20
23813;DHT22;12087;45.190;5.688;2024-03-23T12:49:59;16.80;92.10
23813;DHT22;12087;45.190;5.688;2024-03-23T12:55:23;16.90;93.70
23813;DHT22;12087;45.190;5.688;2024-03-23T13:00:45;17.00;90.80
23813;DHT22;12087;45.190;5.688;2024-03-23T13:06:07;16.90;91.90
23813;DHT22;12087;45.190;5.688;2024-03-23T13:11:31;17.10;90.70
23813;DHT22;12087;45.190;5.688;2024-03-23T13:16:54;16.90;90.00
23813;DHT22;12087;45.190;5.688;2024-03-23T13:22:16;16.80;89.60
23813;DHT22;12087;45.190;5.688;2024-03-23T13:27:39;16.90;89.00
23813;DHT22;12087;45.190;5.688;2024-03-23T13:33:02;17.10;88.60
23813;DHT22;12087;45.190;5.688;2024-03-23T13:38:24;17.40;87.80
23813;DHT22;12087;45.190;5.688;2024-03-23T13:43:48;17.30;85.20
23813;DHT22;12087;45.190;5.688;2024-03-23T13:49:24;17.30;89.20
23813;DHT22;12087;45.190;5.688;2024-03-23T13:54:47;17.30;87.10
23813;DHT22;12087;45.190;5.688;2024-03-23T14:00:11;17.40;81.30
23813;DHT22;12087;45.190;5.688;2024-03-23T14:05:34;17.50;83.80
23813;DHT22;12087;45.190;5.688;2024-03-23T14:10:56;17.50;80.60
23813;DHT22;12087;45.190;5.688;2024-03-23T14:16:20;17.50;82.70
23813;DHT22;12087;45.190;5.688;2024-03-23T14:21:42;17.80;79.90
23813;DHT22;12087;45.190;5.688;2024-03-23T14:27:04;17.90;80.30
23813;DHT22;12087;45.190;5.688;2024-03-23T14:32:29;18.00;73.90
23813;DHT22;12087;45.190;5.688;2024-03-23T14:37:54;18.00;75.60
23813;DHT22;12087;45.190;5.688;2024-03-23T14:43:16;17.70;75.80
23813;DHT22;12087;45.190;5.688;2024-03-23T14:48:41;17.70;76.00
23813;DHT22;12087;45.190;5.688;2024-03-23T14:54:03;17.60;71.30
23813;DHT22;12087;45.190;5.688;2024-03-23T14:59:26;17.60;71.10
23813;DHT22;12087;45.190;5.688;2024-03-23T15:04:49;17.40;70.90
23813;DHT22;12087;45.190;5.688;2024-03-23T15:10:11;17.30;73.00
23813;DHT22;12087;45.190;5.688;2024-03-23T15:15:38;17.10;72.80
23813;DHT22;12087;45.190;5.688;2024-03-23T15:21:03;17.00;72.60
23813;DHT22;12087;45.190;5.688;2024-03-23T15:26:27;16.90;72.70
23813;DHT22;12087;45.190;5.688;2024-03-23T15:31:49;16.80;68.90
23813;DHT22;12087;45.190;5.688;2024-03-23T15:37:14;16.70;71.00
23813;DHT22;12087;45.190;5.688;2024-03-23T15:42:37;16.60;70.10
23813;DHT22;12087;45.190;5.688;2024-03-23T15:47:59;16.50;70.50
23813;DHT22;12087;45.190;5.688;2024-03-23T15:53:23;16.30;71.60
23813;DHT22;12087;45.190;5.688;2024-03-23T15:58:46;16.30;70.00
23813;DHT22;12087;45.190;5.688;2024-03-23T16:04:08;16.10;69.60
23813;DHT22;12087;45.190;5.688;2024-03-23T16:09:32;15.90;70.20
23813;DHT22;12087;45.190;5.688;2024-03-23T16:14:54;15.90;70.50
23813;DHT22;12087;45.190;5.688;2024-03-23T16:20:16;15.90;66.60
23813;DHT22;12087;45.190;5.688;2024-03-23T16:25:46;15.80;70.30
23813;DHT22;12087;45.190;5.688;2024-03-23T16:31:10;15.60;71.50
23813;DHT22;12087;45.190;5.688;2024-03-23T16:36:32;15.40;69.60
23813;DHT22;12087;45.190;5.688;2024-03-23T16:41:55;15.20;70.00
23813;DHT22;12087;45.190;5.688;2024-03-23T16:47:18;15.00;71.00
23813;DHT22;12087;45.190;5.688;2024-03-23T16:52:40;14.80;69.90
23813;DHT22;12087;45.190;5.688;2024-03-23T16:58:04;14.70;69.90
23813;DHT22;12087;45.190;5.688;2024-03-23T17:03:26;14.60;70.50
23813;DHT22;12087;45.190;5.688;2024-03-23T17:08:48;14.40;71.80
23813;DHT22;12087;45.190;5.688;2024-03-23T17:14:12;14.30;70.70
23813;DHT22;12087;45.190;5.688;2024-03-23T17:19:36;14.10;71.30
23813;DHT22;12087;45.190;5.688;2024-03-23T17:24:59;14.00;70.70
23813;DHT22;12087;45.190;5.688;2024-03-23T17:30:23;14.00;71.60
23813;DHT22;12087;45.190;5.688;2024-03-23T17:35:45;13.90;74.10
23813;DHT22;12087;45.190;5.688;2024-03-23T17:41:07;13.90;73.00
23813;DHT22;12087;45.190;5.688;2024-03-23T17:46:34;13.80;73.40
23813;DHT22;12087;45.190;5.688;2024-03-23T17:51:59;13.70;73.20
23813;DHT22;12087;45.190;5.688;2024-03-23T17:57:23;13.50;74.90
23813;DHT22;12087;45.190;5.688;2024-03-23T18:02:48;13.50;74.40
23813;DHT22;12087;45.190;5.688;2024-03-23T18:08:11;13.30;75.90
23813;DHT22;12087;45.190;5.688;2024-03-23T18:13:33;13.30;75.20
23813;DHT22;12087;45.190;5.688;2024-03-23T18:18:56;13.10;75.40
23813;DHT22;12087;45.190;5.688;2024-03-23T18:24:19;13.10;76.50
23813;DHT22;12087;45.190;5.688;2024-03-23T18:29:41;13.00;75.90
23813;DHT22;12087;45.190;5.688;2024-03-23T18:35:05;12.90;75.60
23813;DHT22;12087;45.190;5.688;2024-03-23T18:40:28;12.80;77.10
23813;DHT22;12087;45.190;5.688;2024-03-23T18:45:51;12.70;77.20
23813;DHT22;12087;45.190;5.688;2024-03-23T18:51:15;12.60;78.10
23813;DHT22;12087;45.190;5.688;2024-03-23T18:56:37;12.40;76.90
23813;DHT22;12087;45.190;5.688;2024-03-23T19:01:59;12.30;78.10
23813;DHT22;12087;45.190;5.688;2024-03-23T19:07:23;12.20;78.60
23813;DHT22;12087;45.190;5.688;2024-03-23T19:12:46;12.20;80.40
23813;DHT22;12087;45.190;5.688;2024-03-23T19:18:08;12.20;80.70
23813;DHT22;12087;45.190;5.688;2024-03-23T19:23:32;12.10;81.30
23813;DHT22;12087;45.190;5.688;2024-03-23T19:28:54;12.00;81.50
23813;DHT22;12087;45.190;5.688;2024-03-23T19:34:16;11.90;82.80
23813;DHT22;12087;45.190;5.688;2024-03-23T19:39:40;11.80;82.60
23813;DHT22;12087;45.190;5.688;2024-03-23T19:45:02;11.80;81.70
23813;DHT22;12087;45.190;5.688;2024-03-23T19:50:25;11.70;82.30
23813;DHT22;12087;45.190;5.688;2024-03-23T19:55:58;11.70;83.10
23813;DHT22;12087;45.190;5.688;2024-03-23T20:01:23;11.60;84.10
23813;DHT22;12087;45.190;5.688;2024-03-23T20:06:46;11.70;84.20
23813;DHT22;12087;45.190;5.688;2024-03-23T20:12:09;11.60;83.80
23813;DHT22;12087;45.190;5.688;2024-03-23T20:17:32;11.60;85.70
23813;DHT22;12087;45.190;5.688;2024-03-23T20:22:54;11.60;85.50
23813;DHT22;12087;45.190;5.688;2024-03-23T20:28:18;11.60;85.50
23813;DHT22;12087;45.190;5.688;2024-03-23T20:33:40;11.60;85.90
23813;DHT22;12087;45.190;5.688;2024-03-23T20:39:02;11.60;85.70
23813;DHT22;12087;45.190;5.688;2024-03-23T20:44:26;11.60;86.50
23813;DHT22;12087;45.190;5.688;2024-03-23T20:49:48;11.70;86.60
23813;DHT22;12087;45.190;5.688;2024-03-23T20:55:11;11.70;86.90
23813;DHT22;12087;45.190;5.688;2024-03-23T21:00:34;11.70;87.00
23813;DHT22;12087;45.190;5.688;2024-03-23T21:05:56;11.60;86.80
23813;DHT22;12087;45.190;5.688;2024-03-23T21:11:19;11.60;88.00
23813;DHT22;12087;45.190;5.688;2024-03-23T21:16:42;11.60;87.20
23813;DHT22;12087;45.190;5.688;2024-03-23T21:22:05;11.60;88.10
23813;DHT22;12087;45.190;5.688;2024-03-23T21:27:27;11.60;87.50
23813;DHT22;12087;45.190;5.688;2024-03-23T21:32:51;11.60;88.50
23813;DHT22;12087;45.190;5.688;2024-03-23T21:38:13;11.60;88.10
23813;DHT22;12087;45.190;5.688;2024-03-23T21:43:36;11.50;87.90
23813;DHT22;12087;45.190;5.688;2024-03-23T21:49:00;11.50;88.70
23813;DHT22;12087;45.190;5.688;2024-03-23T21:54:22;11.40;88.30
23813;DHT22;12087;45.190;5.688;2024-03-23T21:59:44;11.40;90.30
23813;DHT22;12087;45.190;5.688;2024-03-23T22:05:08;11.40;89.30
23813;DHT22;12087;45.190;5.688;2024-03-23T22:10:31;11.30;89.50
23813;DHT22;12087;45.190;5.688;2024-03-23T22:15:57;11.30;88.60
23813;DHT22;12087;45.190;5.688;2024-03-23T22:21:20;11.30;90.10
23813;DHT22;12087;45.190;5.688;2024-03-23T22:26:42;11.20;90.30
23813;DHT22;12087;45.190;5.688;2024-03-23T22:32:05;11.20;90.50
23813;DHT22;12087;45.190;5.688;2024-03-23T22:37:29;11.20;90.00
23813;DHT22;12087;45.190;5.688;2024-03-23T22:42:51;11.10;89.90
23813;DHT22;12087;45.190;5.688;2024-03-23T22:48:13;11.10;91.00
23813;DHT22;12087;45.190;5.688;2024-03-23T22:53:37;11.00;90.60
23813;DHT22;12087;45.190;5.688;2024-03-23T22:58:59;11.00;90.60
23813;DHT22;12087;45.190;5.688;2024-03-23T23:04:22;10.90;90.40
23813;DHT22;12087;45.190;5.688;2024-03-23T23:09:46;10.90;90.30
23813;DHT22;12087;45.190;5.688;2024-03-23T23:15:08;10.80;90.50
23813;DHT22;12087;45.190;5.688;2024-03-23T23:20:32;10.90;91.40
23813;DHT22;12087;45.190;5.688;2024-03-23T23:25:55;10.90;91.40
23813;DHT22;12087;45.190;5.688;2024-03-23T23:31:18;10.80;91.00
23813;DHT22;12087;45.190;5.688;2024-03-23T23:36:41;10.80;91.60
23813;DHT22;12087;45.190;5.688;2024-03-23T23:42:05;10.70;91.00
23813;DHT22;12087;45.190;5.688;2024-03-23T23:47:27;10.60;91.60
23813;DHT22;12087;45.190;5.688;2024-03-23T23:52:49;10.60;92.20
23813;DHT22;12087;45.190;5.688;2024-03-23T23:58:13;10.60;92.50
